createdAt,value
2022-10-03T00:00:00.000Z,14.71
2022-10-03T00:15:00.000Z,14.6
2022-10-03T00:30:00.000Z,14.53
2022-10-03T00:45:00.000Z,14.6
2022-10-03T01:00:00.000Z,14.6
2022-10-03T01:15:00.000Z,14.41
2022-10-03T01:30:00.000Z,14.27
2022-10-03T01:45:00.000Z,14.28
2022-10-03T02:00:00.000Z,14.25
2022-10-03T02:15:00.000Z,13.87
2022-10-03T02:30:00.000Z,13.71
2022-10-03T02:45:00.000Z,13.57
2022-10-03T03:00:00.000Z,13.62
2022-10-03T03:15:00.000Z,13.55
2022-10-03T03:30:00.000Z,13.44
2022-10-03T03:45:00.000Z,13.18
2022-10-03T04:15:00.000Z,13.22
2022-10-03T04:15:00.000Z,13.22
2022-10-03T04:30:00.000Z,13.15
2022-10-03T04:45:00.000Z,13.09
2022-10-03T05:00:00.000Z,13.17
2022-10-03T05:15:00.000Z,13.03
2022-10-03T05:30:00.000Z,12.9
2022-10-03T05:45:00.000Z,13.07
2022-10-03T06:00:00.000Z,13.35
2022-10-03T06:15:00.000Z,13.56
2022-10-03T06:30:00.000Z,13.61
2022-10-03T06:45:00.000Z,13.92
2022-10-03T07:00:00.000Z,14.59
2022-10-03T07:15:00.000Z,15.52
2022-10-03T07:30:00.000Z,16.44
2022-10-03T07:45:00.000Z,16.24
2022-10-03T08:00:00.000Z,16.74
2022-10-03T08:15:00.000Z,18.26
2022-10-03T08:30:00.000Z,19.51
2022-10-03T08:45:00.000Z,19.52
2022-10-03T09:00:00.000Z,19.86
2022-10-03T09:15:00.000Z,20.61
2022-10-03T09:30:00.000Z,18.64
2022-10-03T09:45:00.000Z,17.98
2022-10-03T10:00:00.000Z,17.36
2022-10-03T10:15:00.000Z,18.32
2022-10-03T10:30:00.000Z,18.83
2022-10-03T10:45:00.000Z,18.02
2022-10-03T11:00:00.000Z,18.78
2022-10-03T11:15:00.000Z,18.61
2022-10-03T11:30:00.000Z,16.81
2022-10-03T11:45:00.000Z,16.58
2022-10-03T12:00:00.000Z,17.23
2022-10-03T12:15:00.000Z,17.78
2022-10-03T12:30:00.000Z,17.27
2022-10-03T12:45:00.000Z,16.87
2022-10-03T13:00:00.000Z,17.13
2022-10-03T13:15:00.000Z,17.77
2022-10-03T13:30:00.000Z,17.13
2022-10-03T13:45:00.000Z,17.04
2022-10-03T14:00:00.000Z,16.99
2022-10-03T14:15:00.000Z,16.75
2022-10-03T14:30:00.000Z,16.79
2022-10-03T14:45:00.000Z,17.07
2022-10-03T15:00:00.000Z,16.7
2022-10-03T15:15:00.000Z,16.32
2022-10-03T15:30:00.000Z,15.84
2022-10-03T15:45:00.000Z,15.36
2022-10-03T16:00:00.000Z,15.04
2022-10-03T16:15:00.000Z,14.65
2022-10-03T16:30:00.000Z,14.2
2022-10-03T16:45:00.000Z,13.83
2022-10-03T17:00:00.000Z,13.53
2022-10-03T17:15:00.000Z,13.2
2022-10-03T17:30:00.000Z,12.95
2022-10-03T17:45:00.000Z,13.15
2022-10-03T18:00:00.000Z,12.86
2022-10-03T18:15:00.000Z,12.4
2022-10-03T18:30:00.000Z,12.58
2022-10-03T18:45:00.000Z,12.5
2022-10-03T19:00:00.000Z,12.26
2022-10-03T19:15:00.000Z,12.04
2022-10-03T19:30:00.000Z,11.87
2022-10-03T19:45:00.000Z,11.63
2022-10-03T20:00:00.000Z,11.44
2022-10-03T20:15:00.000Z,11.26
2022-10-03T20:30:00.000Z,10.98
2022-10-03T21:00:00.000Z,10.98
2022-10-03T21:00:00.000Z,11.02
2022-10-03T21:15:00.000Z,11.22
2022-10-03T21:30:00.000Z,11.29
2022-10-03T21:45:00.000Z,11.14
2022-10-03T22:00:00.000Z,11.15
2022-10-03T22:15:00.000Z,11.19
2022-10-03T22:30:00.000Z,11.15
2022-10-03T22:45:00.000Z,10.99
2022-10-03T23:00:00.000Z,11.1
2022-10-03T23:15:00.000Z,11.03
2022-10-03T23:30:00.000Z,10.66
2022-10-03T23:45:00.000Z,10.39
